createdAt,value
2022-10-04T00:04:40.905Z,14.71
2022-10-04T00:09:50.919Z,15.76
2022-10-04T00:14:57.774Z,15.35
2022-10-04T00:20:01.813Z,14.41
2022-10-04T00:25:07.785Z,15.37
2022-10-04T00:30:23.827Z,15.40
2022-10-04T00:35:26.597Z,13.70
2022-10-04T00:40:36.052Z,14.68
2022-10-04T00:45:43.607Z,15.37
2022-10-04T00:50:56.809Z,15.36
2022-10-04T00:56:03.709Z,15.42
2022-10-04T01:01:07.154Z,15.32
2022-10-04T01:06:12.075Z,13.79
2022-10-04T01:11:25.630Z,15.01
2022-10-04T01:16:33.599Z,15.73
2022-10-04T01:21:39.423Z,13.85
2022-10-04T01:26:44.991Z,13.47
2022-10-04T01:31:53.576Z,14.85
2022-10-04T01:36:59.962Z,15.56
2022-10-04T01:42:06.199Z,15.74
2022-10-04T01:47:16.684Z,15.75
2022-10-04T01:52:24.193Z,14.22
2022-10-04T01:57:42.867Z,14.91
2022-10-04T02:02:51.692Z,15.42
2022-10-04T02:07:56.558Z,15.47
2022-10-04T02:13:01.101Z,15.59
2022-10-04T02:18:06.514Z,15.61
2022-10-04T02:23:11.421Z,15.67
2022-10-04T02:28:16.930Z,15.75
2022-10-04T02:33:20.195Z,15.71
2022-10-04T02:38:25.557Z,15.83
2022-10-04T02:43:51.913Z,15.59
2022-10-04T02:49:20.416Z,13.83
2022-10-04T02:54:47.177Z,14.71
2022-10-04T02:59:52.007Z,15.49
2022-10-04T03:04:59.439Z,15.80
2022-10-04T03:10:07.441Z,15.68
2022-10-04T03:15:13.346Z,14.12
2022-10-04T03:20:21.407Z,14.69
2022-10-04T03:25:30.820Z,15.04
2022-10-04T03:30:36.720Z,15.24
2022-10-04T03:35:40.795Z,15.30
2022-10-04T03:40:51.938Z,15.57
2022-10-04T03:45:57.036Z,15.68
2022-10-04T03:51:03.263Z,15.60
2022-10-04T03:56:38.728Z,15.78
2022-10-04T04:01:51.610Z,15.82
2022-10-04T04:07:03.345Z,15.98
2022-10-04T04:12:21.437Z,16.15
2022-10-04T04:17:29.871Z,16.15
2022-10-04T04:22:33.621Z,16.19
2022-10-04T04:27:40.089Z,15.92
2022-10-04T04:32:49.470Z,15.87
2022-10-04T04:38:10.775Z,15.91
2022-10-04T04:43:21.153Z,16.18
2022-10-04T04:48:24.161Z,16.16
2022-10-04T04:53:29.318Z,16.13
2022-10-04T04:58:43.631Z,16.43
2022-10-04T05:04:00.544Z,16.47
2022-10-04T05:09:05.582Z,16.66
2022-10-04T05:14:11.554Z,16.66
2022-10-04T05:19:16.815Z,16.38
2022-10-04T05:24:26.372Z,16.53
2022-10-04T05:29:34.517Z,16.71
2022-10-04T05:34:42.856Z,17.00
2022-10-04T05:39:58.495Z,17.15
2022-10-04T05:45:01.543Z,16.10
2022-10-04T05:50:05.202Z,15.20
2022-10-04T05:55:27.123Z,16.04
2022-10-04T06:00:51.126Z,16.53
2022-10-04T06:05:57.688Z,16.70
2022-10-04T06:11:18.938Z,16.79
2022-10-04T06:16:21.874Z,16.84
2022-10-04T06:21:27.714Z,16.95
2022-10-04T06:26:44.034Z,16.86
2022-10-04T06:31:59.738Z,16.86
2022-10-04T06:37:09.913Z,16.76
2022-10-04T06:42:25.208Z,16.70
2022-10-04T06:47:43.780Z,16.69
2022-10-04T06:53:15.464Z,16.66
2022-10-04T06:58:44.398Z,16.85
2022-10-04T07:03:56.390Z,17.17
2022-10-04T07:09:05.754Z,17.25
2022-10-04T07:14:24.973Z,17.36
2022-10-04T07:19:39.427Z,15.94
2022-10-04T07:24:51.331Z,16.81
2022-10-04T07:30:00.496Z,17.38
2022-10-04T07:35:09.251Z,17.81
2022-10-04T07:40:34.033Z,18.06
2022-10-04T07:45:41.935Z,17.59
2022-10-04T07:51:23.100Z,18.08
2022-10-04T07:56:45.630Z,20.99
2022-10-04T08:02:27.745Z,20.95
2022-10-04T08:07:51.742Z,21.89
2022-10-04T08:13:22.436Z,21.99
2022-10-04T08:18:31.445Z,20.87
2022-10-04T08:23:44.977Z,19.17
2022-10-04T08:29:40.851Z,17.73
2022-10-04T08:35:16.621Z,16.66
2022-10-04T08:40:55.264Z,16.15
2022-10-04T08:46:31.598Z,17.72
2022-10-04T08:51:40.910Z,17.15
2022-10-04T08:56:43.858Z,16.44
2022-10-04T09:02:15.963Z,16.42
2022-10-04T09:07:30.790Z,18.31
2022-10-04T09:13:02.001Z,18.12
2022-10-04T09:18:51.348Z,17.47
2022-10-04T09:24:19.136Z,16.94
2022-10-04T09:29:34.227Z,16.77
2022-10-04T09:34:51.847Z,16.72
2022-10-04T09:40:26.220Z,16.62
2022-10-04T09:45:49.300Z,16.72
2022-10-04T09:51:17.083Z,20.30
2022-10-04T09:56:42.901Z,23.88
2022-10-04T10:02:11.241Z,26.06
2022-10-04T10:07:22.939Z,26.31
2022-10-04T10:13:12.228Z,25.07
2022-10-04T10:18:33.774Z,23.60
2022-10-04T10:24:12.108Z,22.72
2022-10-04T10:29:39.383Z,22.78
2022-10-04T10:35:00.418Z,24.92
2022-10-04T10:40:37.457Z,25.70
2022-10-04T10:46:08.011Z,23.54
2022-10-04T10:51:20.725Z,21.97
2022-10-04T10:56:47.873Z,20.98
2022-10-04T11:01:50.956Z,19.47
2022-10-04T11:07:20.726Z,18.23
2022-10-04T11:13:01.308Z,17.50
2022-10-04T11:18:42.316Z,17.63
2022-10-04T11:24:25.045Z,18.21
2022-10-04T11:29:31.142Z,19.66
2022-10-04T11:35:01.578Z,20.11
2022-10-04T11:40:07.248Z,19.76
2022-10-04T11:45:33.599Z,19.32
2022-10-04T11:51:12.549Z,19.27
2022-10-04T11:56:38.598Z,19.51
2022-10-04T12:02:16.625Z,19.82
2022-10-04T12:07:47.893Z,22.14
2022-10-04T12:12:54.072Z,22.42
2022-10-04T12:18:33.239Z,21.86
2022-10-04T12:23:54.361Z,21.89
2022-10-04T12:29:00.131Z,21.55
2022-10-04T12:34:15.193Z,22.10
2022-10-04T12:39:41.071Z,25.41
2022-10-04T12:44:43.870Z,27.87
2022-10-04T12:49:56.508Z,29.30
2022-10-04T12:55:23.671Z,27.46
2022-10-04T13:00:34.262Z,25.20
2022-10-04T13:06:03.277Z,25.35
2022-10-04T13:11:24.713Z,25.51
2022-10-04T13:22:56.320Z,25.55
2022-10-04T13:28:06.275Z,26.48
2022-10-04T13:33:40.341Z,27.27
2022-10-04T13:39:01.268Z,28.84
2022-10-04T13:44:41.759Z,29.58
2022-10-04T13:49:56.534Z,29.80
2022-10-04T13:55:24.321Z,30.12
2022-10-04T14:00:59.750Z,30.81
2022-10-04T14:06:30.050Z,31.26
2022-10-04T14:11:32.837Z,31.09
2022-10-04T14:16:50.719Z,30.90
2022-10-04T14:21:56.466Z,30.62
2022-10-04T14:27:28.554Z,29.90
2022-10-04T14:32:43.643Z,28.68
2022-10-04T14:38:01.885Z,27.70
2022-10-04T14:43:10.547Z,27.71
2022-10-04T14:48:28.711Z,28.12
2022-10-04T14:53:42.068Z,28.31
2022-10-04T14:59:29.410Z,28.36
2022-10-04T15:04:57.096Z,28.22
2022-10-04T15:10:22.534Z,27.99
2022-10-04T15:15:40.965Z,27.87
2022-10-04T15:20:54.445Z,27.58
2022-10-04T15:26:13.177Z,27.11
2022-10-04T15:31:28.674Z,26.40
2022-10-04T15:36:39.718Z,24.75
2022-10-04T15:42:25.117Z,23.23
2022-10-04T15:47:57.111Z,21.30
2022-10-04T15:53:45.894Z,19.27
2022-10-04T15:59:28.624Z,17.69
2022-10-04T16:04:32.763Z,16.51
2022-10-04T16:09:41.497Z,15.63
2022-10-04T16:15:21.063Z,14.92
2022-10-04T16:20:43.216Z,14.28
2022-10-04T16:25:48.173Z,13.73
2022-10-04T16:31:20.351Z,13.30
2022-10-04T16:36:28.561Z,12.86
2022-10-04T16:41:41.570Z,12.49
2022-10-04T16:46:46.449Z,12.13
2022-10-04T16:52:03.003Z,12.98
2022-10-04T16:57:13.900Z,16.00
2022-10-04T17:03:04.213Z,16.17
2022-10-04T17:08:15.825Z,14.13
2022-10-04T17:13:46.169Z,13.09
2022-10-04T17:18:48.963Z,12.34
2022-10-04T17:24:08.976Z,12.70
2022-10-04T17:29:38.401Z,15.02
2022-10-04T17:34:59.782Z,16.23
2022-10-04T17:40:12.575Z,15.54
2022-10-04T17:45:41.080Z,13.71
2022-10-04T17:51:23.513Z,13.73
2022-10-04T17:56:45.188Z,15.62
2022-10-04T18:02:00.299Z,15.59
2022-10-04T18:07:16.342Z,13.67
2022-10-04T18:12:30.454Z,13.60
2022-10-04T18:17:41.111Z,15.40
2022-10-04T18:22:50.067Z,16.02
2022-10-04T18:28:08.102Z,14.46
2022-10-04T18:33:16.291Z,12.80
2022-10-04T18:38:28.975Z,12.92
2022-10-04T18:43:49.679Z,14.83
2022-10-04T18:49:00.105Z,15.71
2022-10-04T18:54:34.629Z,15.23
2022-10-04T19:00:03.042Z,13.16
2022-10-04T19:05:05.935Z,13.14
2022-10-04T19:10:20.823Z,14.83
2022-10-04T19:15:50.173Z,15.42
2022-10-04T19:21:04.926Z,13.65
2022-10-04T19:26:37.669Z,13.12
2022-10-04T19:32:01.536Z,14.84
2022-10-04T19:37:10.574Z,15.45
2022-10-04T19:42:36.621Z,13.85
2022-10-04T19:47:49.047Z,12.39
2022-10-04T19:52:59.737Z,13.73
2022-10-04T19:58:19.537Z,15.03
2022-10-04T20:03:22.747Z,14.84
2022-10-04T20:09:01.529Z,13.00
2022-10-04T20:14:05.317Z,12.91
2022-10-04T20:19:19.490Z,14.52
2022-10-04T20:24:37.653Z,15.30
2022-10-04T20:29:40.467Z,14.64
2022-10-04T20:34:43.252Z,12.73
2022-10-04T20:39:46.259Z,13.51
2022-10-04T20:44:56.204Z,14.98
2022-10-04T20:50:00.104Z,15.39
2022-10-04T20:55:15.763Z,13.66
2022-10-04T21:00:21.467Z,13.24
2022-10-04T21:05:25.010Z,14.95
2022-10-04T21:10:28.775Z,15.59
2022-10-04T21:15:31.678Z,14.07
2022-10-04T21:20:45.027Z,12.58
2022-10-04T21:25:47.930Z,13.10
2022-10-04T21:30:50.732Z,14.98
2022-10-04T21:35:53.538Z,15.76
2022-10-04T21:40:56.950Z,14.44
2022-10-04T21:46:00.025Z,13.21
2022-10-04T21:51:03.372Z,14.66
2022-10-04T21:56:08.021Z,15.37
2022-10-04T22:01:11.182Z,13.67
2022-10-04T22:06:14.133Z,13.18
2022-10-04T22:11:17.244Z,15.43
2022-10-04T22:16:20.110Z,15.53
2022-10-04T22:21:23.154Z,13.51
2022-10-04T22:26:26.953Z,13.05
2022-10-04T22:31:30.207Z,14.76
2022-10-04T22:36:37.915Z,15.37
2022-10-04T22:41:47.434Z,13.80
2022-10-04T22:46:55.698Z,13.11
2022-10-04T22:52:01.069Z,14.60
2022-10-04T22:57:04.070Z,13.74
2022-10-04T23:02:15.064Z,12.83
2022-10-04T23:07:19.139Z,14.49
2022-10-04T23:12:22.098Z,15.45
2022-10-04T23:17:25.820Z,15.33
2022-10-04T23:22:30.752Z,13.33
2022-10-04T23:27:34.497Z,12.87
2022-10-04T23:32:37.401Z,14.62
2022-10-04T23:37:40.407Z,15.39
2022-10-04T23:42:43.353Z,14.08
2022-10-04T23:47:49.903Z,12.79
2022-10-04T23:52:58.210Z,14.32
2022-10-04T23:58:01.444Z,15.49
